createdAt,value
2022-09-28T00:00:00.501Z,99.99
2022-09-28T00:01:00.501Z,99.99
2022-09-28T00:02:00.599Z,99.99
2022-09-28T00:03:00.558Z,99.99
2022-09-28T00:04:00.457Z,99.99
2022-09-28T00:05:00.439Z,99.99
2022-09-28T00:06:00.419Z,99.99
2022-09-28T00:07:00.449Z,99.99
2022-09-28T00:08:00.399Z,99.98
2022-09-28T00:09:00.390Z,99.98
2022-09-28T00:10:00.382Z,99.98
2022-09-28T00:11:00.368Z,99.99
2022-09-28T00:12:00.359Z,99.98
2022-09-28T00:13:00.341Z,99.98
2022-09-28T00:14:00.322Z,99.98
2022-09-28T00:15:00.309Z,99.98
2022-09-28T00:16:00.435Z,99.98
2022-09-28T00:17:00.281Z,99.77
2022-09-28T00:18:00.289Z,99.67
2022-09-28T00:19:00.258Z,99.67
2022-09-28T00:20:00.243Z,99.57
2022-09-28T00:21:00.228Z,99.57
2022-09-28T00:22:00.218Z,99.57
2022-09-28T00:23:00.210Z,99.67
2022-09-28T00:24:00.210Z,99.67
2022-09-28T00:25:00.199Z,99.37
2022-09-28T00:26:00.190Z,99.37
2022-09-28T00:27:00.157Z,99.47
2022-09-28T00:28:00.140Z,99.57
2022-09-28T00:29:00.129Z,99.57
2022-09-28T00:30:00.152Z,99.57
2022-09-28T00:31:00.109Z,99.37
2022-09-28T00:32:00.306Z,99.26
2022-09-28T00:33:00.082Z,99.26
2022-09-28T00:34:00.081Z,99.26
2022-09-28T00:35:00.112Z,99.05
2022-09-28T00:36:00.041Z,99.16
2022-09-28T00:37:00.041Z,99.21
2022-09-28T00:38:00.022Z,99.32
2022-09-28T00:39:00.010Z,99.42
2022-09-28T00:39:59.979Z,99.42
2022-09-28T00:41:00.025Z,99.32
2022-09-28T00:41:59.960Z,99.37
2022-09-28T00:42:59.961Z,99.21
2022-09-28T00:43:59.941Z,99.11
2022-09-28T00:44:59.932Z,99.26
2022-09-28T00:46:00.032Z,99.11
2022-09-28T00:46:59.901Z,99.11
2022-09-28T00:47:59.900Z,99.21
2022-09-28T00:48:59.880Z,99.11
2022-09-28T00:49:59.860Z,99.21
2022-09-28T00:50:59.850Z,99.11
2022-09-28T00:51:59.840Z,99.11
2022-09-28T00:52:59.850Z,99.11
2022-09-28T00:53:59.810Z,98.96
2022-09-28T00:54:59.801Z,99.05
2022-09-28T00:55:59.778Z,98.85
2022-09-28T00:56:59.778Z,98.85
2022-09-28T00:57:59.760Z,99.05
2022-09-28T00:58:59.759Z,99.16
2022-09-28T00:59:59.731Z,99.21
2022-09-28T01:00:59.798Z,99.21
2022-09-28T01:02:06.756Z,99.32
2022-09-28T01:02:59.705Z,99.21
2022-09-28T01:03:59.683Z,99.21
2022-09-28T01:04:59.685Z,99.11
2022-09-28T01:05:59.665Z,99.11
2022-09-28T01:06:59.648Z,99.21
2022-09-28T01:07:59.694Z,99.21
2022-09-28T01:08:59.639Z,99.32
2022-09-28T01:09:59.598Z,99.32
2022-09-28T01:10:59.614Z,99.42
2022-09-28T01:11:59.609Z,99.42
2022-09-28T01:12:59.570Z,99.32
2022-09-28T01:13:59.573Z,99.11
2022-09-28T01:14:59.537Z,99.21
2022-09-28T01:15:59.581Z,99.11
2022-09-28T01:16:59.529Z,99.11
2022-09-28T01:17:59.523Z,99.11
2022-09-28T01:18:59.495Z,99.21
2022-09-28T01:19:59.483Z,99.21
2022-09-28T01:20:59.544Z,99.21
2022-09-28T01:21:59.456Z,99.11
2022-09-28T01:22:59.445Z,99.11
2022-09-28T01:23:59.437Z,99.01
2022-09-28T01:24:59.429Z,99.11
2022-09-28T01:25:59.393Z,99.11
2022-09-28T01:26:59.385Z,99.11
2022-09-28T01:27:59.367Z,99.11
2022-09-28T01:28:59.364Z,99.11
2022-09-28T01:29:59.358Z,99.11
2022-09-28T01:30:59.343Z,99.11
2022-09-28T01:31:59.466Z,99.11
2022-09-28T01:32:59.323Z,99.11
2022-09-28T01:33:59.293Z,99.17
2022-09-28T01:34:59.315Z,99.27
2022-09-28T01:35:59.306Z,99.27
2022-09-28T01:36:59.260Z,99.38
2022-09-28T01:37:59.235Z,99.27
2022-09-28T01:38:59.237Z,99.27
2022-09-28T01:39:59.216Z,99.27
2022-09-28T01:40:59.243Z,99.27
2022-09-28T01:41:59.197Z,99.17
2022-09-28T01:42:59.186Z,99.17
2022-09-28T01:43:59.166Z,99.07
2022-09-28T01:44:59.157Z,99.07
2022-09-28T01:45:59.181Z,99.07
2022-09-28T01:46:59.148Z,99.17
2022-09-28T01:47:59.115Z,99.27
2022-09-28T01:48:59.104Z,99.38
2022-09-28T01:49:59.089Z,99.48
2022-09-28T01:50:59.100Z,99.38
2022-09-28T01:51:59.060Z,99.38
2022-09-28T01:52:59.070Z,99.27
2022-09-28T01:53:59.045Z,98.96
2022-09-28T01:54:59.021Z,98.96
2022-09-28T01:55:59.005Z,98.96
2022-09-28T01:56:59.018Z,98.96
2022-09-28T01:57:58.984Z,98.96
2022-09-28T01:58:58.976Z,98.96
2022-09-28T01:59:58.967Z,98.86
2022-09-28T02:00:58.995Z,98.86
2022-09-28T02:01:59.021Z,99.07
2022-09-28T02:02:58.929Z,99.17
2022-09-28T02:03:58.915Z,99.27
2022-09-28T02:04:58.886Z,99.38
2022-09-28T02:05:58.886Z,99.48
2022-09-28T02:06:58.875Z,99.48
2022-09-28T02:07:58.845Z,99.38
2022-09-28T02:08:58.856Z,99.17
2022-09-28T02:09:58.827Z,99.17
2022-09-28T02:10:58.832Z,99.17
2022-09-28T02:11:58.796Z,99.07
2022-09-28T02:12:58.818Z,99.07
2022-09-28T02:13:58.775Z,99.17
2022-09-28T02:14:58.778Z,99.27
2022-09-28T02:15:58.773Z,99.38
2022-09-28T02:16:58.748Z,99.48
2022-09-28T02:17:58.737Z,99.48
2022-09-28T02:18:58.740Z,99.48
2022-09-28T02:19:58.700Z,99.58
2022-09-28T02:20:58.731Z,99.58
2022-09-28T02:21:58.665Z,99.58
2022-09-28T02:22:58.665Z,99.58
2022-09-28T02:23:58.655Z,99.58
2022-09-28T02:24:58.640Z,99.48
2022-09-28T02:25:58.623Z,99.48
2022-09-28T02:26:58.606Z,99.38
2022-09-28T02:27:58.601Z,99.38
2022-09-28T02:28:58.597Z,99.38
2022-09-28T02:29:58.576Z,99.48
2022-09-28T02:30:58.570Z,99.48
2022-09-28T02:31:58.547Z,99.48
2022-09-28T02:32:58.536Z,99.99
2022-09-28T02:33:58.532Z,99.99
2022-09-28T02:34:58.521Z,99.99
2022-09-28T02:35:58.497Z,99.79
2022-09-28T02:36:58.492Z,99.68
2022-09-28T02:37:58.472Z,99.68
2022-09-28T02:38:58.457Z,99.79
2022-09-28T02:39:58.456Z,99.89
2022-09-28T02:40:58.500Z,99.79
2022-09-28T02:41:58.424Z,99.58
2022-09-28T02:42:58.424Z,99.58
2022-09-28T02:43:58.388Z,99.58
2022-09-28T02:44:58.373Z,99.58
2022-09-28T02:45:58.419Z,99.58
2022-09-28T02:46:58.377Z,99.58
2022-09-28T02:47:58.339Z,99.68
2022-09-28T02:49:17.508Z,99.58
2022-09-28T02:49:59.337Z,99.58
2022-09-28T02:50:58.317Z,99.68
2022-09-28T02:51:58.298Z,99.68
2022-09-28T02:52:58.289Z,99.68
2022-09-28T02:53:58.286Z,99.68
2022-09-28T02:54:58.244Z,99.79
2022-09-28T02:55:58.237Z,99.79
2022-09-28T02:56:58.247Z,99.79
2022-09-28T02:57:58.208Z,99.89
2022-09-28T02:58:58.207Z,99.89
2022-09-28T02:59:58.184Z,99.89
2022-09-28T03:00:58.251Z,99.79
2022-09-28T03:01:58.218Z,99.89
2022-09-28T03:02:58.166Z,99.99
2022-09-28T03:03:58.168Z,99.99
2022-09-28T03:04:58.136Z,99.99
2022-09-28T03:05:58.116Z,99.99
2022-09-28T03:06:58.130Z,99.99
2022-09-28T03:07:58.089Z,99.99
2022-09-28T03:08:58.065Z,99.99
2022-09-28T03:09:58.066Z,99.89
2022-09-28T03:10:58.041Z,99.99
2022-09-28T03:11:58.047Z,99.99
2022-09-28T03:12:58.036Z,99.99
2022-09-28T03:13:58.005Z,99.99
2022-09-28T03:14:58.071Z,99.99
2022-09-28T03:15:58.026Z,99.99
2022-09-28T03:16:58.019Z,99.99
2022-09-28T03:17:57.991Z,99.99
2022-09-28T03:18:57.947Z,99.99
2022-09-28T03:19:57.938Z,99.99
2022-09-28T03:20:57.935Z,99.99
2022-09-28T03:21:57.914Z,99.99
2022-09-28T03:23:22.700Z,99.99
2022-09-28T03:23:58.917Z,99.99
2022-09-28T03:24:57.858Z,99.99
2022-09-28T03:25:57.873Z,99.99
2022-09-28T03:26:57.844Z,99.99
2022-09-28T03:27:57.829Z,99.99
2022-09-28T03:28:57.816Z,99.99
2022-09-28T03:29:57.799Z,99.99
2022-09-28T03:30:57.792Z,99.99
2022-09-28T03:31:57.841Z,99.99
2022-09-28T03:32:57.779Z,99.99
2022-09-28T03:33:57.769Z,99.99
2022-09-28T03:34:57.768Z,99.99
2022-09-28T03:35:57.731Z,99.99
2022-09-28T03:36:57.715Z,99.99
2022-09-28T03:37:57.722Z,99.99
2022-09-28T03:38:57.720Z,99.99
2022-09-28T03:39:57.698Z,99.99
2022-09-28T03:40:57.708Z,99.99
2022-09-28T03:41:57.698Z,99.99
2022-09-28T03:42:57.702Z,99.99
2022-09-28T03:43:57.618Z,99.99
2022-09-28T03:44:57.618Z,99.99
2022-09-28T03:45:57.697Z,99.99
2022-09-28T03:46:57.580Z,99.99
2022-09-28T03:47:57.569Z,99.99
2022-09-28T03:48:57.575Z,99.99
2022-09-28T03:49:57.558Z,99.99
2022-09-28T03:50:57.528Z,99.99
2022-09-28T03:51:57.517Z,99.99
2022-09-28T03:52:57.527Z,99.99
2022-09-28T03:53:57.488Z,99.99
2022-09-28T03:54:57.487Z,99.99
2022-09-28T03:55:57.467Z,99.99
2022-09-28T03:56:57.458Z,99.99
2022-09-28T03:57:57.439Z,99.99
2022-09-28T03:58:57.419Z,99.99
2022-09-28T03:59:57.419Z,99.99
2022-09-28T04:00:57.508Z,99.99
2022-09-28T04:01:57.442Z,99.99
2022-09-28T04:02:57.378Z,99.99
2022-09-28T04:03:57.361Z,99.99
2022-09-28T04:04:57.352Z,99.99
2022-09-28T04:05:57.368Z,99.99
2022-09-28T04:06:57.322Z,99.99
2022-09-28T04:07:57.317Z,99.99
2022-09-28T04:08:57.290Z,99.99
2022-09-28T04:09:57.289Z,99.99
2022-09-28T04:10:57.267Z,99.99
2022-09-28T04:12:03.876Z,99.99
2022-09-28T04:12:58.257Z,99.99
2022-09-28T04:13:57.248Z,99.99
2022-09-28T04:14:57.228Z,99.99
2022-09-28T04:15:57.367Z,99.99
2022-09-28T04:16:57.232Z,99.99
2022-09-28T04:17:57.227Z,99.99
2022-09-28T04:18:57.178Z,99.99
2022-09-28T04:19:57.171Z,99.99
2022-09-28T04:20:57.140Z,99.99
2022-09-28T04:21:57.129Z,99.99
2022-09-28T04:22:57.120Z,99.99
2022-09-28T04:23:57.107Z,99.99
2022-09-28T04:24:57.131Z,99.99
2022-09-28T04:25:57.079Z,99.99
2022-09-28T04:26:57.061Z,99.99
2022-09-28T04:27:57.078Z,99.99
2022-09-28T04:28:57.056Z,99.99
2022-09-28T04:29:57.079Z,99.99
2022-09-28T04:30:57.020Z,99.99
2022-09-28T04:31:57.059Z,99.99
2022-09-28T04:32:57.010Z,99.99
2022-09-28T04:33:57.039Z,99.99
2022-09-28T04:34:56.980Z,99.99
2022-09-28T04:35:56.961Z,99.99
2022-09-28T04:36:56.931Z,99.99
2022-09-28T04:37:56.948Z,99.99
2022-09-28T04:38:56.918Z,99.99
2022-09-28T04:39:56.900Z,99.99
2022-09-28T04:40:56.923Z,99.99
2022-09-28T04:41:56.880Z,99.99
2022-09-28T04:42:56.870Z,99.99
2022-09-28T04:43:56.860Z,99.99
2022-09-28T04:44:56.833Z,99.99
2022-09-28T04:45:56.915Z,99.99
2022-09-28T04:46:56.810Z,99.99
2022-09-28T04:47:56.818Z,99.99
2022-09-28T04:48:56.818Z,99.99
2022-09-28T04:49:56.773Z,99.99
2022-09-28T04:50:56.771Z,99.99
2022-09-28T04:51:56.774Z,99.99
2022-09-28T04:52:56.810Z,99.99
2022-09-28T04:53:56.744Z,99.99
2022-09-28T04:54:56.728Z,99.99
2022-09-28T04:55:56.731Z,99.99
2022-09-28T04:56:56.690Z,99.99
2022-09-28T04:57:56.679Z,99.99
2022-09-28T04:58:56.658Z,99.99
2022-09-28T04:59:56.681Z,99.99
2022-09-28T05:00:56.644Z,99.99
2022-09-28T05:01:56.694Z,99.99
2022-09-28T05:02:56.602Z,99.99
2022-09-28T05:03:56.590Z,99.99
2022-09-28T05:04:56.581Z,99.99
2022-09-28T05:05:56.558Z,99.99
2022-09-28T05:06:56.597Z,99.99
2022-09-28T05:07:56.547Z,99.99
2022-09-28T05:08:56.561Z,99.99
2022-09-28T05:09:56.521Z,99.99
2022-09-28T05:10:56.520Z,99.99
2022-09-28T05:11:56.491Z,99.99
2022-09-28T05:12:56.499Z,99.99
2022-09-28T05:13:56.461Z,99.99
2022-09-28T05:14:56.519Z,99.99
2022-09-28T05:15:59.695Z,99.99
2022-09-28T05:16:57.495Z,99.99
2022-09-28T05:17:56.413Z,99.99
2022-09-28T05:18:56.398Z,99.99
2022-09-28T05:19:56.388Z,99.99
2022-09-28T05:20:56.378Z,99.99
2022-09-28T05:21:56.379Z,99.99
2022-09-28T05:22:56.360Z,99.99
2022-09-28T05:23:56.340Z,99.99
2022-09-28T05:24:56.330Z,99.99
2022-09-28T05:25:56.321Z,99.99
2022-09-28T05:26:56.340Z,99.99
2022-09-28T05:27:56.308Z,99.99
2022-09-28T05:28:56.302Z,99.99
2022-09-28T05:29:56.261Z,99.99
2022-09-28T05:30:56.248Z,99.99
2022-09-28T05:31:56.282Z,99.99
2022-09-28T05:32:56.211Z,99.99
2022-09-28T05:33:56.219Z,99.99
2022-09-28T05:34:56.190Z,99.99
2022-09-28T05:36:00.907Z,99.99
2022-09-28T05:36:57.171Z,99.99
2022-09-28T05:37:56.156Z,99.99
2022-09-28T05:38:56.142Z,99.99
2022-09-28T05:39:56.141Z,99.99
2022-09-28T05:40:56.219Z,99.99
2022-09-28T05:41:56.104Z,99.99
2022-09-28T05:42:56.094Z,99.99
2022-09-28T05:43:56.098Z,99.99
2022-09-28T05:44:56.060Z,99.99
2022-09-28T05:45:56.191Z,99.99
2022-09-28T05:46:56.030Z,99.99
2022-09-28T05:47:56.020Z,99.99
2022-09-28T05:48:56.040Z,99.99
2022-09-28T05:49:56.022Z,99.99
2022-09-28T05:50:55.992Z,99.99
2022-09-28T05:51:56.005Z,99.99
2022-09-28T05:52:55.971Z,99.99
2022-09-28T05:53:55.973Z,99.99
2022-09-28T05:54:55.942Z,99.99
2022-09-28T05:55:55.932Z,99.89
2022-09-28T05:56:55.930Z,99.89
2022-09-28T05:57:55.892Z,99.99
2022-09-28T05:58:55.879Z,99.89
2022-09-28T05:59:55.933Z,99.89
2022-09-28T06:00:55.957Z,99.99
2022-09-28T06:01:55.872Z,99.95
2022-09-28T06:02:55.850Z,99.95
2022-09-28T06:03:55.810Z,99.84
2022-09-28T06:04:55.811Z,99.63
2022-09-28T06:05:55.833Z,99.54
2022-09-28T06:06:55.790Z,99.33
2022-09-28T06:07:55.777Z,99.22
2022-09-28T06:08:55.753Z,99.18
2022-09-28T06:09:55.763Z,99.08
2022-09-28T06:10:55.743Z,98.77
2022-09-28T06:11:55.723Z,98.57
2022-09-28T06:12:55.691Z,98.36
2022-09-28T06:13:55.689Z,98.25
2022-09-28T06:14:55.681Z,98.05
2022-09-28T06:15:55.662Z,97.95
2022-09-28T06:16:55.671Z,97.49
2022-09-28T06:17:55.649Z,97.39
2022-09-28T06:18:55.620Z,97.08
2022-09-28T06:19:55.614Z,96.88
2022-09-28T06:20:55.614Z,96.78
2022-09-28T06:21:57.554Z,96.47
2022-09-28T06:22:55.587Z,96.26
2022-09-28T06:23:55.575Z,96.16
2022-09-28T06:24:55.573Z,96.37
2022-09-28T06:25:55.541Z,96.26
2022-09-28T06:26:55.542Z,96.26
2022-09-28T06:27:55.523Z,96.22
2022-09-28T06:28:55.506Z,95.91
2022-09-28T06:29:55.491Z,95.70
2022-09-28T06:30:55.511Z,95.50
2022-09-28T06:31:55.451Z,95.29
2022-09-28T06:32:55.441Z,95.29
2022-09-28T06:33:55.453Z,95.20
2022-09-28T06:34:56.491Z,95.20
2022-09-28T06:35:55.413Z,95.09
2022-09-28T06:36:55.444Z,94.89
2022-09-28T06:37:55.382Z,95.03
2022-09-28T06:38:55.447Z,95.24
2022-09-28T06:39:55.353Z,95.54
2022-09-28T06:40:55.498Z,95.75
2022-09-28T06:41:55.332Z,95.95
2022-09-28T06:42:55.328Z,95.95
2022-09-28T06:43:55.304Z,95.86
2022-09-28T06:44:55.282Z,95.65
2022-09-28T06:45:55.401Z,95.75
2022-09-28T06:46:55.271Z,95.95
2022-09-28T06:47:55.253Z,96.06
2022-09-28T06:48:55.297Z,96.06
2022-09-28T06:49:55.238Z,95.75
2022-09-28T06:50:55.223Z,95.61
2022-09-28T06:51:55.203Z,95.40
2022-09-28T06:52:55.193Z,95.20
2022-09-28T06:53:55.162Z,95.20
2022-09-28T06:54:55.163Z,95.15
2022-09-28T06:55:55.165Z,95.15
2022-09-28T06:56:55.135Z,95.05
2022-09-28T06:57:55.131Z,94.74
2022-09-28T06:58:55.110Z,94.59
2022-09-28T06:59:55.094Z,94.39
2022-09-28T07:00:55.127Z,94.39
2022-09-28T07:01:55.208Z,94.24
2022-09-28T07:03:02.221Z,93.93
2022-09-28T07:03:55.910Z,93.22
2022-09-28T07:04:55.056Z,93.01
2022-09-28T07:05:55.045Z,92.97
2022-09-28T07:06:55.022Z,92.66
2022-09-28T07:07:55.014Z,92.66
2022-09-28T07:09:13.462Z,92.42
2022-09-28T07:09:56.008Z,91.91
2022-09-28T07:10:54.966Z,91.29
2022-09-28T07:11:54.944Z,91.09
2022-09-28T07:12:54.963Z,91.60
2022-09-28T07:13:54.933Z,91.80
2022-09-28T07:14:55.213Z,91.91
2022-09-28T07:15:54.939Z,91.66
2022-09-28T07:17:12.580Z,91.25
2022-09-28T07:18:02.175Z,91.15
2022-09-28T07:18:55.876Z,90.84
2022-09-28T07:19:54.848Z,90.33
2022-09-28T07:20:54.854Z,90.12
2022-09-28T07:22:04.188Z,90.02
2022-09-28T07:22:56.303Z,90.53
2022-09-28T07:23:54.809Z,90.39
2022-09-28T07:24:54.796Z,90.29
2022-09-28T07:25:54.884Z,90.19
2022-09-28T07:26:54.754Z,89.67
2022-09-28T07:27:54.738Z,89.58
2022-09-28T07:28:54.726Z,89.63
2022-09-28T07:29:54.725Z,89.37
2022-09-28T07:30:54.827Z,89.58
2022-09-28T07:31:54.687Z,89.58
2022-09-28T07:32:54.680Z,89.37
2022-09-28T07:33:54.667Z,89.06
2022-09-28T07:34:58.743Z,88.85
2022-09-28T07:35:54.637Z,89.26
2022-09-28T07:36:54.666Z,89.06
2022-09-28T07:37:54.608Z,89.26
2022-09-28T07:38:54.641Z,88.76
2022-09-28T07:39:54.606Z,88.85
2022-09-28T07:40:54.816Z,88.92
2022-09-28T07:41:59.629Z,88.51
2022-09-28T07:42:55.556Z,88.41
2022-09-28T07:43:54.538Z,88.51
2022-09-28T07:44:54.526Z,87.38
2022-09-28T07:45:54.565Z,87.08
2022-09-28T07:46:54.518Z,87.59
2022-09-28T07:47:54.488Z,88.00
2022-09-28T07:48:54.479Z,88.51
2022-09-28T07:49:54.476Z,88.20
2022-09-28T07:50:54.460Z,88.31
2022-09-28T07:51:54.428Z,88.20
2022-09-28T07:52:54.417Z,88.31
2022-09-28T07:53:54.399Z,88.41
2022-09-28T07:54:54.399Z,87.70
2022-09-28T07:55:54.399Z,87.45
2022-09-28T07:56:54.378Z,87.35
2022-09-28T07:57:54.369Z,87.45
2022-09-28T07:58:54.410Z,87.24
2022-09-28T07:59:54.339Z,86.49
2022-09-28T08:00:54.395Z,86.18
2022-09-28T08:01:54.359Z,86.18
2022-09-28T08:02:54.309Z,85.68
2022-09-28T08:03:54.278Z,85.27
2022-09-28T08:04:54.281Z,84.86
2022-09-28T08:05:54.267Z,84.82
2022-09-28T08:06:54.360Z,84.92
2022-09-28T08:07:54.228Z,84.98
2022-09-28T08:08:54.236Z,84.37
2022-09-28T08:09:54.199Z,83.86
2022-09-28T08:11:54.188Z,83.92
2022-09-28T08:12:54.181Z,84.03
2022-09-28T08:13:54.162Z,84.29
2022-09-28T08:14:54.149Z,84.19
2022-09-28T08:15:54.130Z,83.48
2022-09-28T08:16:54.153Z,83.48
2022-09-28T08:17:54.903Z,82.76
2022-09-28T08:18:54.079Z,82.82
2022-09-28T08:19:54.069Z,82.21
2022-09-28T08:20:54.060Z,82.48
2022-09-28T08:21:54.050Z,82.59
2022-09-28T08:22:54.030Z,82.14
2022-09-28T08:23:54.040Z,81.84
2022-09-28T08:24:54.007Z,80.58
2022-09-28T08:25:54.172Z,80.07
2022-09-28T08:26:53.988Z,79.63
2022-09-28T08:27:53.985Z,78.81
2022-09-28T08:28:53.960Z,77.59
2022-09-28T08:29:53.942Z,77.49
2022-09-28T08:30:54.145Z,77.90
2022-09-28T08:31:57.260Z,76.78
2022-09-28T08:32:54.919Z,77.39
2022-09-28T08:33:53.912Z,78.06
2022-09-28T08:34:53.960Z,77.36
2022-09-28T08:35:53.860Z,77.66
2022-09-28T08:36:53.872Z,77.76
2022-09-28T08:37:55.671Z,77.76
2022-09-28T08:38:53.830Z,76.95
2022-09-28T08:39:53.820Z,77.25
2022-09-28T08:40:54.015Z,77.56
2022-09-28T08:41:53.794Z,76.95
2022-09-28T08:42:53.802Z,77.19
2022-09-28T08:43:53.762Z,77.49
2022-09-28T08:44:53.761Z,77.70
2022-09-28T08:45:53.768Z,76.41
2022-09-28T08:46:53.724Z,76.72
2022-09-28T08:47:53.713Z,76.55
2022-09-28T08:49:13.302Z,76.86
2022-09-28T08:50:53.670Z,77.81
2022-09-28T08:51:53.669Z,78.72
2022-09-28T08:52:53.653Z,78.52
2022-09-28T08:53:53.778Z,79.33
2022-09-28T08:54:53.624Z,79.43
2022-09-28T08:55:53.604Z,78.82
2022-09-28T08:56:53.593Z,78.92
2022-09-28T08:57:54.534Z,79.43
2022-09-28T08:58:53.571Z,79.84
2022-09-28T08:59:53.594Z,80.96
2022-09-28T09:00:53.582Z,79.94
2022-09-28T09:01:56.058Z,78.41
2022-09-28T09:02:53.735Z,78.82
2022-09-28T09:03:53.503Z,77.53
2022-09-28T09:04:53.504Z,78.66
2022-09-28T09:05:53.491Z,79.77
2022-09-28T09:06:53.467Z,80.59
2022-09-28T09:07:53.454Z,80.96
2022-09-28T09:08:53.442Z,79.94
2022-09-28T09:09:53.426Z,79.84
2022-09-28T09:10:53.426Z,78.52
2022-09-28T09:11:53.415Z,77.94
2022-09-28T09:13:53.376Z,81.51
2022-09-28T09:14:53.364Z,81.26
2022-09-28T09:15:53.345Z,79.06
2022-09-28T09:16:53.404Z,78.55
2022-09-28T09:17:53.321Z,78.45
2022-09-28T09:18:53.320Z,79.16
2022-09-28T09:19:53.297Z,79.02
2022-09-28T09:20:53.286Z,78.21
2022-09-28T09:21:53.305Z,78.35
2022-09-28T09:22:53.281Z,78.05
2022-09-28T09:23:53.255Z,77.84
2022-09-28T09:24:53.236Z,77.84
2022-09-28T09:25:53.220Z,77.44
2022-09-28T09:26:53.226Z,77.44
2022-09-28T09:27:53.227Z,76.72
2022-09-28T09:28:53.203Z,76.31
2022-09-28T09:29:53.166Z,76.42
2022-09-28T09:30:53.170Z,77.23
2022-09-28T09:31:53.138Z,78.15
2022-09-28T09:32:53.125Z,78.92
2022-09-28T09:33:53.106Z,78.11
2022-09-28T09:34:53.105Z,78.58
2022-09-28T09:35:53.085Z,78.89
2022-09-28T09:36:53.066Z,78.48
2022-09-28T09:37:56.499Z,76.34
2022-09-28T09:38:54.058Z,74.85
2022-09-28T09:39:53.058Z,75.87
2022-09-28T09:40:53.112Z,75.16
2022-09-28T09:41:53.017Z,75.91
2022-09-28T09:42:53.017Z,75.40
2022-09-28T09:43:52.997Z,76.76
2022-09-28T09:44:53.007Z,77.47
2022-09-28T09:45:52.992Z,77.47
2022-09-28T09:46:52.946Z,76.76
2022-09-28T09:47:52.955Z,77.87
2022-09-28T09:48:52.928Z,77.64
2022-09-28T09:49:52.938Z,77.64
2022-09-28T09:50:52.896Z,76.42
2022-09-28T09:51:52.877Z,77.09
2022-09-28T09:52:52.868Z,76.59
2022-09-28T09:53:52.866Z,76.68
2022-09-28T09:54:52.859Z,77.26
2022-09-28T09:55:52.840Z,76.25
2022-09-28T09:56:52.829Z,75.60
2022-09-28T09:57:52.809Z,75.80
2022-09-28T09:58:52.798Z,76.10
2022-09-28T09:59:52.799Z,74.99
2022-09-28T10:00:52.849Z,73.87
2022-09-28T10:01:52.756Z,73.16
2022-09-28T10:02:52.800Z,72.96
2022-09-28T10:03:52.731Z,73.57
2022-09-28T10:04:52.730Z,73.87
2022-09-28T10:05:52.712Z,74.44
2022-09-28T10:06:52.698Z,75.83
2022-09-28T10:07:54.447Z,75.02
2022-09-28T10:08:52.670Z,73.16
2022-09-28T10:09:52.682Z,73.73
2022-09-28T10:10:52.645Z,73.70
2022-09-28T10:11:52.621Z,71.47
2022-09-28T10:12:52.618Z,71.26
2022-09-28T10:13:52.589Z,70.15
2022-09-28T10:14:52.599Z,71.88
2022-09-28T10:15:52.591Z,71.16
2022-09-28T10:16:52.595Z,69.64
2022-09-28T10:17:52.540Z,69.92
2022-09-28T10:18:52.591Z,70.21
2022-09-28T10:19:52.524Z,69.03
2022-09-28T10:20:52.532Z,66.97
2022-09-28T10:21:52.493Z,69.03
2022-09-28T10:22:52.483Z,71.03
2022-09-28T10:23:52.469Z,70.01
2022-09-28T10:24:52.456Z,70.32
2022-09-28T10:25:52.470Z,68.55
2022-09-28T10:26:52.428Z,70.89
2022-09-28T10:27:52.431Z,70.35
2022-09-28T10:28:52.403Z,69.95
2022-09-28T10:29:52.395Z,69.91
2022-09-28T10:30:52.464Z,68.70
2022-09-28T10:31:52.372Z,69.71
2022-09-28T10:32:52.363Z,70.15
2022-09-28T10:33:52.331Z,69.84
2022-09-28T10:34:52.362Z,71.57
2022-09-28T10:35:52.324Z,72.89
2022-09-28T10:36:52.303Z,73.90
2022-09-28T10:37:52.332Z,72.45
2022-09-28T10:38:52.287Z,73.06
2022-09-28T10:39:52.261Z,73.26
2022-09-28T10:40:52.285Z,72.34
2022-09-28T10:41:52.242Z,72.65
2022-09-28T10:42:52.233Z,73.33
2022-09-28T10:43:57.401Z,71.40
2022-09-28T10:44:53.213Z,71.80
2022-09-28T10:45:52.228Z,71.50
2022-09-28T10:46:52.162Z,70.89
2022-09-28T10:47:52.213Z,72.31
2022-09-28T10:48:52.151Z,72.31
2022-09-28T10:49:52.134Z,71.94
2022-09-28T10:50:52.125Z,72.25
2022-09-28T10:51:52.145Z,70.42
2022-09-28T10:52:52.151Z,69.34
2022-09-28T10:53:52.078Z,70.55
2022-09-28T10:54:52.067Z,69.84
2022-09-28T10:55:52.057Z,69.37
2022-09-28T10:56:52.065Z,68.59
2022-09-28T10:57:52.055Z,69.23
2022-09-28T10:58:52.014Z,70.01
2022-09-28T10:59:51.994Z,71.53
2022-09-28T11:00:52.124Z,71.84
2022-09-28T11:01:52.025Z,71.87
2022-09-28T11:02:52.114Z,72.55
2022-09-28T11:03:51.955Z,73.16
2022-09-28T11:04:51.932Z,72.55
2022-09-28T11:05:51.922Z,71.94
2022-09-28T11:06:51.935Z,73.26
2022-09-28T11:07:51.899Z,71.64
2022-09-28T11:08:51.905Z,73.26
2022-09-28T11:09:51.870Z,73.47
2022-09-28T11:10:51.856Z,72.75
2022-09-28T11:11:51.847Z,72.45
2022-09-28T11:12:51.910Z,71.67
2022-09-28T11:13:51.827Z,71.26
2022-09-28T11:14:51.805Z,71.97
2022-09-28T11:15:52.016Z,72.38
2022-09-28T11:16:51.888Z,72.17
2022-09-28T11:17:51.838Z,72.11
2022-09-28T11:18:51.755Z,72.62
2022-09-28T11:19:51.797Z,73.30
2022-09-28T11:20:51.795Z,73.10
2022-09-28T11:21:51.716Z,73.19
2022-09-28T11:22:53.522Z,72.89
2022-09-28T11:23:51.689Z,72.69
2022-09-28T11:24:51.687Z,73.71
2022-09-28T11:25:51.658Z,73.97
2022-09-28T11:26:51.648Z,73.26
2022-09-28T11:27:51.690Z,73.57
2022-09-28T11:28:51.751Z,73.47
2022-09-28T11:29:51.628Z,73.57
2022-09-28T11:30:51.652Z,73.16
2022-09-28T11:31:51.586Z,73.16
2022-09-28T11:32:51.577Z,73.47
2022-09-28T11:33:51.557Z,74.28
2022-09-28T11:35:00.064Z,73.57
2022-09-28T11:35:52.528Z,75.02
2022-09-28T11:36:51.618Z,75.37
2022-09-28T11:37:51.587Z,75.88
2022-09-28T11:38:51.511Z,76.59
2022-09-28T11:39:51.510Z,76.59
2022-09-28T11:40:51.503Z,75.84
2022-09-28T11:41:51.460Z,76.08
2022-09-28T11:42:51.486Z,77.00
2022-09-28T11:43:51.438Z,76.79
2022-09-28T11:44:51.420Z,76.45
2022-09-28T11:45:51.507Z,76.56
2022-09-28T11:46:51.389Z,75.88
2022-09-28T11:47:51.620Z,76.39
2022-09-28T11:48:51.359Z,76.65
2022-09-28T11:49:51.339Z,76.45
2022-09-28T11:50:51.335Z,75.43
2022-09-28T11:51:51.338Z,75.98
2022-09-28T11:52:51.350Z,76.49
2022-09-28T11:53:51.298Z,76.18
2022-09-28T11:54:51.290Z,76.18
2022-09-28T11:55:51.281Z,76.28
2022-09-28T11:56:51.278Z,76.73
2022-09-28T11:57:51.317Z,77.44
2022-09-28T11:58:51.293Z,77.64
2022-09-28T11:59:51.231Z,78.05
2022-09-28T12:00:51.211Z,78.12
2022-09-28T12:01:51.221Z,76.90
2022-09-28T12:02:51.251Z,73.88
2022-09-28T12:03:51.219Z,74.49
2022-09-28T12:04:51.151Z,74.38
2022-09-28T12:05:51.139Z,72.34
2022-09-28T12:06:51.129Z,71.43
2022-09-28T12:07:51.130Z,71.94
2022-09-28T12:08:51.113Z,72.34
2022-09-28T12:09:51.093Z,73.16
2022-09-28T12:10:51.069Z,73.13
2022-09-28T12:11:51.067Z,73.23
2022-09-28T12:12:51.062Z,71.97
2022-09-28T12:13:51.072Z,72.34
2022-09-28T12:14:51.020Z,70.34
2022-09-28T12:16:23.061Z,70.95
2022-09-28T12:17:05.823Z,71.64
2022-09-28T12:17:52.041Z,71.12
2022-09-28T12:18:51.018Z,70.18
2022-09-28T12:19:50.962Z,69.80
2022-09-28T12:20:51.128Z,71.19
2022-09-28T12:21:50.933Z,69.49
2022-09-28T12:22:50.922Z,70.75
2022-09-28T12:23:50.923Z,70.62
2022-09-28T12:24:50.951Z,70.04
2022-09-28T12:25:50.883Z,70.86
2022-09-28T12:26:50.881Z,71.09
2022-09-28T12:27:50.868Z,71.50
2022-09-28T12:28:50.862Z,71.97
2022-09-28T12:29:50.830Z,71.19
2022-09-28T12:30:50.838Z,69.80
2022-09-28T12:31:50.810Z,71.02
2022-09-28T12:32:50.791Z,70.68
2022-09-28T12:33:50.792Z,70.04
2022-09-28T12:34:50.765Z,70.04
2022-09-28T12:35:50.754Z,69.20
2022-09-28T12:36:50.754Z,69.30
2022-09-28T12:37:54.554Z,68.66
2022-09-28T12:39:08.453Z,68.38
2022-09-28T12:39:57.978Z,69.50
2022-09-28T12:40:51.755Z,69.50
2022-09-28T12:41:50.754Z,69.46
2022-09-28T12:42:50.654Z,70.48
2022-09-28T12:43:50.654Z,70.79
2022-09-28T12:44:50.644Z,71.09
2022-09-28T12:46:10.385Z,69.77
2022-09-28T12:46:51.692Z,70.18
2022-09-28T12:47:50.593Z,70.18
2022-09-28T12:49:24.109Z,70.25
2022-09-28T12:50:56.971Z,69.70
2022-09-28T12:51:51.555Z,69.02
2022-09-28T12:52:50.550Z,68.24
2022-09-28T12:53:50.530Z,69.90
2022-09-28T12:54:50.517Z,70.68
2022-09-28T12:55:50.517Z,70.18